Time;durP1;ratioP1;P1;durP2;ratioP2;P2;SDS_P1;SDS_P2;PMS_P1;PMS_P2;Temp;Humidity;BMP_temperature;BMP_pressure;BME280_temperature;BME280_humidity;BME280_pressure;Samples;Min_cycle;Max_cycle;Signal;HPM_P1;HPM_P2
2022/11/28 00:01:37;;;;;;;6.22;3.88;;;20.50;62.90;;;;;;5016862;28;87917;-81
2022/11/28 00:04:05;;;;;;;5.43;3.67;;;20.50;62.60;;;;;;5019352;28;87790;-81
2022/11/28 00:06:30;;;;;;;4.68;3.55;;;20.50;62.60;;;;;;5016511;27;88190;-81
2022/11/28 00:08:59;;;;;;;5.88;3.55;;;20.50;62.60;;;;;;5017175;27;87927;-81
2022/11/28 00:11:25;;;;;;;5.85;4.00;;;20.50;62.50;;;;;;5019055;27;87392;-81
2022/11/28 00:13:50;;;;;;;4.20;3.25;;;20.50;62.50;;;;;;5016207;28;87581;-81
2022/11/28 00:16:20;;;;;;;7.45;3.85;;;20.40;62.90;;;;;;5016197;28;88350;-82
2022/11/28 00:18:45;;;;;;;;;;;20.40;62.50;;;;;;5011222;27;92155;-81
2022/11/28 00:21:13;;;;;;;4.07;3.25;;;20.40;62.50;;;;;;5022444;27;87569;-81
2022/11/28 00:23:39;;;;;;;4.47;3.20;;;20.40;62.30;;;;;;5015820;28;87015;-81
2022/11/28 00:26:11;;;;;;;4.95;3.13;;;20.40;62.40;;;;;;5016240;27;88924;-81
2022/11/28 00:28:37;;;;;;;5.68;3.30;;;20.40;62.40;;;;;;5018906;27;88717;-82
2022/11/28 00:31:03;;;;;;;4.95;3.55;;;20.40;62.20;;;;;;5015235;28;87748;-82
2022/11/28 00:33:30;;;;;;;5.05;3.40;;;20.40;62.80;;;;;;5018000;27;86960;-81
2022/11/28 00:36:01;;;;;;;5.05;3.40;;;20.40;62.50;;;;;;5015723;27;88754;-81
2022/11/28 00:38:27;;;;;;;4.70;3.20;;;20.40;62.50;;;;;;5015804;27;88570;-81
2022/11/28 00:41:08;;;;;;;4.75;3.08;;;20.30;62.40;;;;;;5016582;27;87891;-81
2022/11/28 00:43:34;;;;;;;5.70;3.90;;;20.30;62.60;;;;;;5017116;27;87633;-81
2022/11/28 00:46:03;;;;;;;4.32;3.28;;;20.30;62.50;;;;;;5019707;28;88097;-81
2022/11/28 00:48:28;;;;;;;5.67;3.70;;;20.30;62.70;;;;;;5015709;28;90396;-81
2022/11/28 00:50:54;;;;;;;5.00;3.03;;;20.30;62.70;;;;;;5018540;27;88476;-81
2022/11/28 00:53:20;;;;;;;6.35;3.92;;;20.30;62.40;;;;;;5019780;27;87471;-81
2022/11/28 00:55:46;;;;;;;4.57;3.15;;;20.30;62.60;;;;;;5015305;27;90216;-81
2022/11/28 00:58:12;;;;;;;3.85;3.15;;;20.30;62.50;;;;;;5019758;27;88294;-81
2022/11/28 01:00:37;;;;;;;4.63;3.10;;;20.30;62.60;;;;;;5019434;27;88846;-81
2022/11/28 01:03:03;;;;;;;5.38;3.45;;;20.30;62.60;;;;;;5016677;27;86986;-81
2022/11/28 01:05:29;;;;;;;4.40;3.33;;;20.30;62.60;;;;;;5015124;28;88469;-81
2022/11/28 01:07:54;;;;;;;4.72;3.30;;;20.30;62.70;;;;;;5014359;28;87766;-81
2022/11/28 01:10:20;;;;;;;5.20;3.53;;;20.20;62.60;;;;;;5021316;27;87099;-81
2022/11/28 01:12:46;;;;;;;4.10;3.05;;;20.30;62.80;;;;;;5018738;28;87670;-81
2022/11/28 01:15:12;;;;;;;6.43;3.35;;;20.20;62.60;;;;;;5017203;27;88622;-81
2022/11/28 01:17:38;;;;;;;4.13;3.17;;;20.20;62.70;;;;;;5015854;28;89636;-81
2022/11/28 01:20:07;;;;;;;4.72;2.92;;;20.20;62.70;;;;;;5007652;27;87617;-81
2022/11/28 01:22:33;;;;;;;4.88;3.55;;;20.20;62.70;;;;;;5017456;28;87781;-81
2022/11/28 01:24:58;;;;;;;4.00;3.17;;;20.20;62.60;;;;;;5018973;27;87899;-81
2022/11/28 01:27:24;;;;;;;5.35;3.70;;;20.20;62.50;;;;;;5015280;27;87809;-81
2022/11/28 01:29:50;;;;;;;4.88;3.50;;;20.20;62.60;;;;;;5015925;28;86906;-81
2022/11/28 01:32:17;;;;;;;5.10;2.95;;;20.20;62.60;;;;;;5018011;27;87371;-81
2022/11/28 01:34:42;;;;;;;3.78;3.17;;;20.20;62.80;;;;;;5016200;28;87966;-82
2022/11/28 01:37:08;;;;;;;4.38;3.05;;;20.20;62.70;;;;;;5016675;28;88545;-81
2022/11/28 01:39:33;;;;;;;3.83;2.90;;;20.20;62.60;;;;;;5016234;27;88268;-81
2022/11/28 01:41:59;;;;;;;5.43;3.08;;;20.10;62.60;;;;;;5018965;27;87478;-81
2022/11/28 01:44:24;;;;;;;4.53;2.80;;;20.10;62.70;;;;;;5017383;28;87776;-81
2022/11/28 01:46:50;;;;;;;5.00;2.97;;;20.20;62.70;;;;;;5016137;27;87573;-82
2022/11/28 01:49:25;;;;;;;3.10;2.53;;;20.20;62.70;;;;;;5015602;28;87307;-81
2022/11/28 01:52:01;;;;;;;3.80;3.03;;;20.10;62.80;;;;;;4994854;28;91369;-81
2022/11/28 01:54:28;;;;;;;4.25;2.97;;;20.10;62.70;;;;;;5012182;27;87534;-81
2022/11/28 01:57:15;;;;;;;4.10;3.08;;;20.10;62.80;;;;;;5016899;27;88188;-81
2022/11/28 01:59:50;;;;;;;5.15;3.15;;;20.10;62.60;;;;;;5016332;27;87757;-81
2022/11/28 02:02:40;;;;;;;3.85;2.78;;;20.10;62.70;;;;;;5015639;28;87137;-81
2022/11/28 02:05:07;;;;;;;4.28;2.90;;;20.10;62.60;;;;;;5016485;27;89544;-81
2022/11/28 02:07:34;;;;;;;3.33;2.42;;;20.10;62.60;;;;;;5014680;27;88750;-81
2022/11/28 02:10:01;;;;;;;3.20;2.90;;;20.10;62.60;;;;;;5018368;28;87355;-81
2022/11/28 02:12:49;;;;;;;5.22;3.08;;;20.10;62.70;;;;;;5017611;28;87496;-81
2022/11/28 02:15:33;;;;;;;4.28;2.80;;;20.10;62.60;;;;;;5015955;27;88440;-81
2022/11/28 02:18:05;;;;;;;3.65;2.92;;;20.00;62.70;;;;;;5014609;27;87735;-81
2022/11/28 02:20:45;;;;;;;5.25;3.38;;;20.00;62.70;;;;;;5015523;27;87626;-81
2022/11/28 02:23:20;;;;;;;2.88;2.35;;;20.00;62.70;;;;;;5015747;27;87420;-81
2022/11/28 02:26:11;;;;;;;3.58;2.78;;;20.00;62.70;;;;;;5017535;27;89072;-81
2022/11/28 02:29:06;;;;;;;4.10;2.60;;;20.00;62.90;;;;;;5016647;27;88302;-81
2022/11/28 02:32:03;;;;;;;3.95;3.08;;;20.00;62.80;;;;;;5016250;27;88009;-81
2022/11/28 02:35:07;;;;;;;3.60;2.85;;;20.00;62.70;;;;;;5014366;27;87039;-81
2022/11/28 02:38:01;;;;;;;3.03;2.67;;;20.00;62.70;;;;;;5013708;27;88777;-81
2022/11/28 02:40:32;;;;;;;5.22;2.75;;;20.00;62.50;;;;;;5015730;28;88444;-81
2022/11/28 02:42:58;;;;;;;3.10;2.50;;;20.00;62.70;;;;;;5016902;28;87446;-81
2022/11/28 02:45:42;;;;;;;3.38;2.80;;;20.00;62.80;;;;;;5017396;27;86990;-81
2022/11/28 02:48:44;;;;;;;3.47;2.80;;;20.00;62.70;;;;;;5016961;27;87667;-81
2022/11/28 02:51:13;;;;;;;3.28;2.55;;;20.00;62.50;;;;;;5016794;27;88278;-81
2022/11/28 02:53:42;;;;;;;3.50;2.77;;;19.90;62.40;;;;;;5014650;27;87714;-81
2022/11/28 02:56:10;;;;;;;3.17;2.88;;;19.90;62.50;;;;;;5015720;28;87701;-81
2022/11/28 02:58:36;;;;;;;4.50;2.40;;;19.90;62.60;;;;;;5014982;27;89402;-81
2022/11/28 03:01:02;;;;;;;3.45;2.88;;;20.00;62.60;;;;;;5014348;28;89082;-81
2022/11/28 03:04:03;;;;;;;3.40;3.10;;;19.90;62.70;;;;;;5013608;28;88629;-80
2022/11/28 03:06:29;;;;;;;3.08;2.47;;;19.90;62.80;;;;;;5011828;28;87905;-81
2022/11/28 03:09:39;;;;;;;3.55;2.50;;;19.90;62.70;;;;;;5012588;28;91528;-81
2022/11/28 03:12:23;;;;;;;2.92;2.58;;;19.90;62.60;;;;;;5017995;27;88009;-81
2022/11/28 03:14:52;;;;;;;3.65;2.35;;;19.90;62.60;;;;;;5017223;28;87752;-81
2022/11/28 03:17:20;;;;;;;2.53;2.33;;;19.90;62.60;;;;;;5014932;27;87454;-81
2022/11/28 03:20:25;;;;;;;4.45;3.28;;;19.80;62.70;;;;;;5013569;28;88320;-81
2022/11/28 03:23:13;;;;;;;2.80;2.30;;;19.80;62.70;;;;;;4963032;28;87791;-81
2022/11/28 03:26:21;;;;;;;3.75;2.70;;;19.80;62.80;;;;;;4963213;28;88569;-81
2022/11/28 03:28:53;;;;;;;2.70;2.22;;;19.90;62.60;;;;;;4963069;28;88156;-81
2022/11/28 03:31:37;;;;;;;3.45;2.47;;;19.80;62.60;;;;;;4963282;28;88781;-80
2022/11/28 03:34:06;;;;;;;3.50;2.67;;;19.80;62.70;;;;;;4962734;28;89043;-81
2022/11/28 03:36:39;;;;;;;4.28;2.75;;;19.80;62.70;;;;;;4963539;28;95513;-81
2022/11/28 03:39:08;;;;;;;4.05;2.70;;;19.80;62.70;;;;;;4962887;28;87561;-81
2022/11/28 03:41:49;;;;;;;;;;;19.80;62.60;;;;;;4963771;28;88430;-81
2022/11/28 03:44:34;;;;;;;4.28;2.83;;;19.80;62.60;;;;;;4964810;28;87710;-81
2022/11/28 03:47:03;;;;;;;2.53;2.22;;;19.80;62.60;;;;;;4964372;28;87953;-81
2022/11/28 03:49:38;;;;;;;4.10;2.38;;;19.80;62.50;;;;;;4963056;28;87646;-81
2022/11/28 03:52:12;;;;;;;3.00;2.50;;;19.80;62.80;;;;;;4963392;28;88462;-81
2022/11/28 03:54:49;;;;;;;2.92;2.50;;;19.70;62.50;;;;;;4962820;28;90782;-81
2022/11/28 03:57:30;;;;;;;2.33;2.13;;;19.80;62.80;;;;;;4963516;28;87663;-81
2022/11/28 03:59:59;;;;;;;3.22;2.80;;;19.80;62.70;;;;;;5000920;27;87752;-81
2022/11/28 04:02:54;;;;;;;3.10;2.33;;;19.70;62.60;;;;;;5015588;28;88296;-81
2022/11/28 04:05:39;;;;;;;2.80;2.50;;;19.80;62.80;;;;;;4934752;28;88363;-81
2022/11/28 04:08:42;;;;;;;3.13;2.83;;;19.70;62.60;;;;;;4932127;28;87573;-81
2022/11/28 04:11:13;;;;;;;2.88;2.50;;;19.80;62.60;;;;;;4865855;28;86743;-81
2022/11/28 04:13:54;;;;;;;3.10;2.30;;;19.70;62.60;;;;;;4865760;28;89297;-81
2022/11/28 04:16:37;;;;;;;2.60;2.35;;;19.70;62.50;;;;;;4868306;28;88971;-80
2022/11/28 04:19:21;;;;;;;2.80;2.28;;;19.70;62.50;;;;;;4869725;28;88807;-81
2022/11/28 04:21:56;;;;;;;3.25;2.42;;;19.70;62.50;;;;;;4869392;28;91406;-81
2022/11/28 04:24:30;;;;;;;3.20;2.42;;;19.70;62.60;;;;;;4868276;28;87780;-82
2022/11/28 04:27:03;;;;;;;2.47;2.28;;;19.70;62.60;;;;;;4856531;28;88285;-81
2022/11/28 04:29:35;;;;;;;3.35;2.63;;;19.70;62.80;;;;;;4850842;28;87542;-81
2022/11/28 04:32:04;;;;;;;4.18;2.30;;;19.70;62.70;;;;;;4850158;28;88347;-81
2022/11/28 04:34:32;;;;;;;2.70;2.40;;;19.70;62.00;;;;;;4849897;28;90025;-81
2022/11/28 04:36:59;;;;;;;2.70;2.17;;;19.70;62.70;;;;;;4851815;29;88196;-81
2022/11/28 04:39:29;;;;;;;2.25;2.05;;;19.70;62.60;;;;;;4850215;28;87219;-81
2022/11/28 04:42:23;;;;;;;2.20;2.00;;;19.70;62.60;;;;;;4872257;28;87324;-81
2022/11/28 04:45:06;;;;;;;3.35;2.60;;;19.70;62.50;;;;;;4899904;28;89621;-81
2022/11/28 04:47:32;;;;;;;2.30;2.00;;;19.70;62.80;;;;;;4925531;28;89364;-81
2022/11/28 04:49:58;;;;;;;3.13;2.28;;;19.60;62.60;;;;;;4968770;28;87838;-81
2022/11/28 04:52:52;;;;;;;2.42;2.22;;;19.70;62.50;;;;;;4974368;28;87217;-81
2022/11/28 04:55:33;;;;;;;3.35;2.22;;;19.70;62.60;;;;;;4975259;28;88581;-80
2022/11/28 04:58:10;;;;;;;2.35;2.15;;;19.60;62.50;;;;;;4974562;28;87915;-81
2022/11/28 05:00:37;;;;;;;2.30;2.10;;;19.60;62.40;;;;;;4973870;28;87506;-81
2022/11/28 05:03:04;;;;;;;2.42;1.90;;;19.60;62.50;;;;;;4976191;28;87444;-81
2022/11/28 05:05:29;;;;;;;2.88;2.30;;;19.60;62.40;;;;;;4974976;28;91511;-81
2022/11/28 05:07:57;;;;;;;2.50;2.20;;;19.60;62.30;;;;;;4974528;28;88550;-81
2022/11/28 05:10:23;;;;;;;2.42;2.17;;;19.60;62.40;;;;;;4974764;28;88350;-81
2022/11/28 05:12:48;;;;;;;3.17;2.50;;;19.60;62.40;;;;;;4975688;28;87055;-81
2022/11/28 05:15:17;;;;;;;3.20;2.45;;;19.60;62.50;;;;;;4974243;28;88498;-81
2022/11/28 05:17:44;;;;;;;2.63;2.13;;;19.60;62.50;;;;;;4974195;28;87589;-81
2022/11/28 05:20:10;;;;;;;2.90;2.17;;;19.60;62.50;;;;;;4975485;28;87625;-81
2022/11/28 05:22:36;;;;;;;2.67;2.10;;;19.60;62.50;;;;;;5008517;27;87574;-81
2022/11/28 05:25:02;;;;;;;2.90;2.30;;;19.60;62.30;;;;;;5018474;28;88361;-81
2022/11/28 05:27:28;;;;;;;2.85;2.30;;;19.60;62.40;;;;;;5015936;27;87641;-81
2022/11/28 05:29:53;;;;;;;2.17;1.98;;;19.60;62.40;;;;;;5014759;28;87672;-81
2022/11/28 05:32:19;;;;;;;2.53;2.10;;;19.50;62.60;;;;;;5016049;27;87925;-82
2022/11/28 05:34:44;;;;;;;3.03;2.22;;;19.50;62.40;;;;;;5014215;27;88874;-82
2022/11/28 05:37:10;;;;;;;3.58;2.30;;;19.50;62.50;;;;;;5017240;28;88908;-81
2022/11/28 05:39:36;;;;;;;2.53;2.20;;;19.50;62.40;;;;;;5017568;27;87785;-81
2022/11/28 05:42:01;;;;;;;2.60;2.10;;;19.50;62.50;;;;;;5016086;27;87063;-82
2022/11/28 05:44:27;;;;;;;2.30;2.03;;;19.50;62.30;;;;;;5017571;28;88519;-81
2022/11/28 05:46:52;;;;;;;2.58;2.38;;;19.50;62.40;;;;;;5016408;27;87739;-81
2022/11/28 05:49:20;;;;;;;2.20;2.00;;;19.50;63.20;;;;;;5016273;27;86848;-81
2022/11/28 05:51:47;;;;;;;2.08;1.77;;;19.50;62.40;;;;;;5014993;28;88040;-81
2022/11/28 05:54:13;;;;;;;2.45;1.90;;;19.50;62.40;;;;;;5017026;27;88449;-81
2022/11/28 05:56:38;;;;;;;2.67;2.17;;;19.50;62.50;;;;;;5015278;27;87610;-81
2022/11/28 05:59:04;;;;;;;2.55;2.03;;;19.50;62.50;;;;;;5015636;27;89217;-81
2022/11/28 06:01:29;;;;;;;2.70;2.00;;;19.50;62.50;;;;;;5019615;27;87369;-81
2022/11/28 06:03:59;;;;;;;2.38;2.03;;;19.50;62.50;;;;;;5016557;28;88121;-81
2022/11/28 06:06:30;;;;;;;2.10;1.80;;;19.50;62.30;;;;;;5014393;27;88290;-81
2022/11/28 06:08:56;;;;;;;2.15;1.95;;;19.50;62.20;;;;;;5017328;27;87672;-81
2022/11/28 06:11:23;;;;;;;2.05;1.83;;;19.60;62.20;;;;;;5017442;27;87444;-81
2022/11/28 06:13:50;;;;;;;2.10;1.90;;;19.60;62.40;;;;;;5014374;28;90439;-80
2022/11/28 06:16:21;;;;;;;3.00;2.30;;;19.60;62.30;;;;;;5016953;28;87787;-81
2022/11/28 06:18:47;;;;;;;2.08;1.88;;;19.60;62.20;;;;;;5017293;28;87597;-81
2022/11/28 06:21:13;;;;;;;2.33;2.00;;;19.60;62.30;;;;;;5013471;27;87366;-81
2022/11/28 06:23:40;;;;;;;2.30;2.10;;;19.60;62.30;;;;;;5015744;27;89858;-81
2022/11/28 06:26:07;;;;;;;2.03;1.83;;;19.50;62.10;;;;;;5012207;28;92326;-81
2022/11/28 06:28:33;;;;;;;2.30;2.10;;;19.50;62.20;;;;;;5013126;28;87547;-81
2022/11/28 06:30:59;;;;;;;2.10;1.83;;;19.50;61.90;;;;;;5016968;27;87344;-81
2022/11/28 06:33:25;;;;;;;2.50;1.90;;;19.60;62.10;;;;;;5012140;28;90521;-80
2022/11/28 06:35:50;;;;;;;5.05;1.83;;;19.60;62.30;;;;;;5015829;27;87862;-81
2022/11/28 06:38:16;;;;;;;2.20;1.67;;;19.70;61.80;;;;;;5015050;27;87831;-80
2022/11/28 06:40:41;;;;;;;4.50;1.75;;;19.80;62.10;;;;;;5016776;27;87834;-81
2022/11/28 06:43:07;;;;;;;5.90;2.60;;;19.80;62.30;;;;;;5014002;28;87701;-80
2022/11/28 06:45:33;;;;;;;3.10;2.08;;;19.90;62.00;;;;;;5019806;28;88194;-80
2022/11/28 06:48:00;;;;;;;3.65;2.10;;;20.10;61.80;;;;;;5013785;27;89029;-80
2022/11/28 06:50:26;;;;;;;4.65;2.33;;;20.20;61.60;;;;;;5012841;28;86951;-81
2022/11/28 06:52:53;;;;;;;6.65;2.92;;;20.30;61.60;;;;;;5011105;27;88318;-81
2022/11/28 06:55:19;;;;;;;6.07;2.85;;;20.40;61.40;;;;;;5015777;27;88160;-82
2022/11/28 06:57:45;;;;;;;8.02;2.80;;;20.40;61.00;;;;;;4991251;28;87595;-82
2022/11/28 07:00:11;;;;;;;7.75;3.28;;;20.50;60.70;;;;;;4975199;28;89638;-82
2022/11/28 07:02:37;;;;;;;9.30;3.35;;;20.60;60.20;;;;;;4982955;28;90310;-80
2022/11/28 07:05:03;;;;;;;12.35;3.42;;;20.70;60.00;;;;;;4993873;28;88227;-81
2022/11/28 07:07:28;;;;;;;7.35;3.08;;;20.80;60.10;;;;;;4994606;28;87547;-81
2022/11/28 07:09:54;;;;;;;9.45;3.50;;;20.80;60.20;;;;;;4992983;28;87911;-80
2022/11/28 07:12:19;;;;;;;8.50;3.15;;;20.80;60.20;;;;;;4992532;28;89328;-81
2022/11/28 07:14:45;;;;;;;8.80;3.17;;;20.90;59.60;;;;;;4989317;28;89671;-81
2022/11/28 07:17:11;;;;;;;10.15;3.55;;;20.90;59.60;;;;;;4990713;28;87248;-81
2022/11/28 07:19:37;;;;;;;9.25;3.35;;;20.90;59.80;;;;;;4972282;28;88813;-81
2022/11/28 07:22:02;;;;;;;7.32;3.17;;;20.90;60.10;;;;;;4992379;28;88529;-82
2022/11/28 07:24:29;;;;;;;12.45;3.42;;;20.90;60.50;;;;;;4993214;28;87556;-81
2022/11/28 07:26:57;;;;;;;11.60;3.92;;;20.90;60.60;;;;;;4990364;28;87485;-81
2022/11/28 07:29:32;;;;;;;7.73;3.40;;;20.80;60.80;;;;;;5008302;28;86923;-81
2022/11/28 07:31:57;;;;;;;10.73;3.05;;;20.80;61.20;;;;;;5014393;27;88662;-81
2022/11/28 07:34:23;;;;;;;11.95;3.67;;;20.80;61.10;;;;;;5013815;27;90012;-82
2022/11/28 07:36:48;;;;;;;15.25;4.10;;;20.80;61.10;;;;;;5017467;28;88052;-81
2022/11/28 07:39:16;;;;;;;10.02;3.30;;;20.90;61.10;;;;;;5011949;27;87518;-81
2022/11/28 07:41:42;;;;;;;12.88;3.60;;;20.90;61.20;;;;;;5014839;27;88518;-82
2022/11/28 07:44:08;;;;;;;13.02;3.67;;;21.00;61.50;;;;;;5014653;28;88135;-82
2022/11/28 07:46:34;;;;;;;16.90;3.80;;;21.10;61.70;;;;;;5012219;28;87729;-82
2022/11/28 07:49:00;;;;;;;11.73;3.40;;;21.20;61.40;;;;;;5015874;28;87937;-82
2022/11/28 07:51:28;;;;;;;19.13;4.63;;;21.20;61.50;;;;;;5017999;27;88301;-82
2022/11/28 07:53:54;;;;;;;24.05;4.10;;;21.30;61.20;;;;;;5015464;28;87355;-82
2022/11/28 07:56:22;;;;;;;13.73;3.55;;;21.40;61.40;;;;;;5019216;27;87142;-82
2022/11/28 07:58:48;;;;;;;20.92;4.10;;;21.50;61.70;;;;;;5016835;27;87764;-82
2022/11/28 08:01:16;;;;;;;14.63;3.78;;;21.50;61.30;;;;;;5013377;27;88595;-81
2022/11/28 08:03:43;;;;;;;14.25;3.70;;;21.60;61.10;;;;;;5013772;27;88780;-82
2022/11/28 08:06:09;;;;;;;17.98;3.88;;;21.60;61.20;;;;;;5014565;27;88309;-81
2022/11/28 08:08:36;;;;;;;13.57;3.88;;;21.60;61.10;;;;;;5013587;27;87388;-82
2022/11/28 08:11:03;;;;;;;18.52;4.18;;;21.60;61.40;;;;;;5015394;28;87305;-83
2022/11/28 08:13:29;;;;;;;12.63;3.72;;;21.60;61.50;;;;;;5017112;27;87749;-82
2022/11/28 08:15:55;;;;;;;14.93;3.70;;;21.60;61.50;;;;;;5017818;28;87047;-82
2022/11/28 08:18:21;;;;;;;11.40;3.80;;;21.60;61.50;;;;;;5016585;28;89110;-82
2022/11/28 08:20:46;;;;;;;9.82;3.15;;;21.60;61.50;;;;;;5005006;27;90044;-83
2022/11/28 08:23:12;;;;;;;10.80;3.20;;;21.60;61.70;;;;;;5020656;27;87589;-83
2022/11/28 08:25:38;;;;;;;14.60;3.78;;;21.60;61.40;;;;;;5015571;28;88445;-81
2022/11/28 08:28:03;;;;;;;20.05;4.03;;;21.60;59.70;;;;;;5016932;28;87266;-82
2022/11/28 08:30:29;;;;;;;16.25;4.10;;;21.60;60.20;;;;;;5014043;27;88461;-81
2022/11/28 08:32:55;;;;;;;14.50;3.50;;;21.60;60.20;;;;;;5016142;28;87944;-81
2022/11/28 08:35:21;;;;;;;13.38;3.70;;;21.60;59.80;;;;;;5012555;28;87049;-80
2022/11/28 08:37:47;;;;;;;21.10;3.90;;;21.60;60.20;;;;;;5013789;27;86980;-81
2022/11/28 08:40:13;;;;;;;16.88;3.83;;;21.60;60.60;;;;;;4998408;27;88110;-80
2022/11/28 08:42:38;;;;;;;24.52;4.05;;;21.70;60.90;;;;;;5018875;27;88359;-81
2022/11/28 08:45:06;;;;;;;19.30;3.80;;;21.70;61.40;;;;;;5015767;27;87430;-81
2022/11/28 08:47:31;;;;;;;17.33;4.60;;;21.90;62.90;;;;;;5015276;27;89087;-80
2022/11/28 08:49:57;;;;;;;15.35;3.72;;;21.90;62.60;;;;;;5012868;28;89621;-81
2022/11/28 08:52:23;;;;;;;16.92;4.07;;;21.90;62.10;;;;;;5015996;27;88557;-82
2022/11/28 08:54:49;;;;;;;24.27;4.22;;;22.00;62.20;;;;;;5016164;28;87481;-80
2022/11/28 08:57:18;;;;;;;13.23;3.13;;;22.10;62.10;;;;;;5016014;28;87407;-81
2022/11/28 08:59:43;;;;;;;21.13;4.40;;;22.10;61.90;;;;;;5014815;28;87621;-81
2022/11/28 09:02:11;;;;;;;13.30;3.15;;;22.10;61.40;;;;;;5019424;27;87778;-80
2022/11/28 09:04:37;;;;;;;13.27;3.75;;;22.10;61.40;;;;;;5020776;27;87426;-81
2022/11/28 09:07:03;;;;;;;14.52;3.42;;;22.10;60.90;;;;;;5019277;28;87762;-81
2022/11/28 09:09:29;;;;;;;12.07;2.92;;;22.00;61.20;;;;;;5015512;28;89841;-81
2022/11/28 09:11:54;;;;;;;15.70;3.53;;;22.00;60.90;;;;;;5015283;27;88395;-82
2022/11/28 09:14:20;;;;;;;11.23;2.90;;;22.00;60.80;;;;;;5012073;28;88555;-81
2022/11/28 09:16:46;;;;;;;11.73;2.83;;;22.00;60.40;;;;;;5013301;28;89889;-82
2022/11/28 09:19:12;;;;;;;12.40;2.80;;;22.10;60.40;;;;;;5015927;28;88193;-82
2022/11/28 09:21:37;;;;;;;12.30;2.75;;;22.10;60.40;;;;;;5016590;28;88732;-82
2022/11/28 09:24:04;;;;;;;12.25;2.67;;;22.10;60.00;;;;;;5017198;27;87459;-82
2022/11/28 09:26:29;;;;;;;12.98;2.10;;;22.20;60.00;;;;;;5015071;28;88787;-82
2022/11/28 09:28:55;;;;;;;13.48;3.13;;;22.20;60.10;;;;;;5014866;28;88043;-81
2022/11/28 09:31:22;;;;;;;7.78;2.38;;;22.30;59.60;;;;;;5013583;27;91642;-82
2022/11/28 09:33:50;;;;;;;11.90;2.20;;;22.40;57.50;;;;;;5017851;27;87178;-82
2022/11/28 09:36:19;;;;;;;11.03;2.33;;;22.50;56.20;;;;;;5015479;28;87656;-81
2022/11/28 09:38:45;;;;;;;11.50;2.75;;;22.60;57.80;;;;;;5013422;27;89762;-81
2022/11/28 09:41:45;;;;;;;14.25;2.70;;;22.60;58.20;;;;;;5015885;27;89112;-81
2022/11/28 09:44:14;;;;;;;7.07;2.50;;;22.60;58.30;;;;;;5011856;28;87664;-82
2022/11/28 09:46:40;;;;;;;18.27;4.27;;;22.70;58.00;;;;;;5015279;28;87582;-81
2022/11/28 09:49:37;;;;;;;22.30;4.78;;;22.70;58.20;;;;;;5015742;28;88311;-82
2022/11/28 09:52:25;;;;;;;30.10;8.10;;;22.70;58.10;;;;;;4943580;28;94290;-82
2022/11/28 09:55:06;;;;;;;27.98;6.43;;;22.60;57.70;;;;;;4944176;28;87135;-81
2022/11/28 09:57:46;;;;;;;28.98;6.80;;;22.60;57.50;;;;;;4926990;28;86882;-80
2022/11/28 10:00:25;;;;;;;31.77;6.60;;;22.50;57.50;;;;;;4943920;28;89272;-80
2022/11/28 10:02:57;;;;;;;22.40;5.75;;;22.50;57.80;;;;;;4944878;28;89166;-80
2022/11/28 10:05:57;;;;;;;24.60;5.40;;;22.40;57.70;;;;;;4943952;28;88620;-80
2022/11/28 10:08:47;;;;;;;24.02;5.38;;;22.40;57.80;;;;;;4869036;28;87562;-80
2022/11/28 10:11:47;;;;;;;18.83;4.25;;;22.50;57.40;;;;;;4884663;28;88758;-83
2022/11/28 10:14:18;;;;;;;24.00;5.40;;;22.50;57.40;;;;;;4810353;29;87738;-82
2022/11/28 10:17:09;;;;;;;11.35;4.05;;;22.40;57.60;;;;;;4810256;29;87626;-82
2022/11/28 10:19:46;;;;;;;21.15;4.20;;;22.40;57.40;;;;;;4811127;29;87819;-82
2022/11/28 10:22:19;;;;;;;17.48;4.43;;;22.40;57.60;;;;;;4811406;29;88604;-81
2022/11/28 10:24:52;;;;;;;17.98;3.92;;;22.50;58.90;;;;;;4810337;29;91816;-82
2022/11/28 10:27:19;;;;;;;25.40;4.47;;;22.60;58.60;;;;;;4810919;29;87647;-81
2022/11/28 10:29:52;;;;;;;20.80;4.00;;;22.60;59.20;;;;;;4839145;29;87683;-82
2022/11/28 10:32:30;;;;;;;15.55;4.07;;;22.60;59.50;;;;;;4847903;29;88538;-83
2022/11/28 10:35:01;;;;;;;13.70;4.15;;;22.60;59.00;;;;;;4847512;29;89271;-83
2022/11/28 10:37:30;;;;;;;26.13;4.10;;;22.60;59.40;;;;;;4847182;29;87611;-83
2022/11/28 10:40:00;;;;;;;15.60;3.95;;;22.60;59.50;;;;;;4848145;29;87490;-83
2022/11/28 10:43:01;;;;;;;17.10;4.53;;;22.60;59.10;;;;;;4848183;28;87805;-84
2022/11/28 10:46:03;;;;;;;14.10;3.42;;;22.60;59.20;;;;;;4891261;28;88087;-84
2022/11/28 10:48:35;;;;;;;20.63;4.15;;;22.60;59.60;;;;;;4965377;28;87583;-83
2022/11/28 10:51:17;;;;;;;17.08;3.95;;;22.60;60.20;;;;;;5008020;28;91799;-83
2022/11/28 10:53:50;;;;;;;16.50;3.30;;;22.70;60.20;;;;;;5013667;27;89200;-89
2022/11/28 10:56:45;;;;;;;18.83;3.65;;;22.70;60.90;;;;;;5012505;27;87799;-83
2022/11/28 10:59:22;;;;;;;17.65;4.30;;;22.80;59.70;;;;;;4932331;28;88401;-83
2022/11/28 11:01:49;;;;;;;17.50;3.47;;;22.80;60.00;;;;;;4930400;28;88107;-82
2022/11/28 11:04:22;;;;;;;13.07;3.15;;;22.80;60.10;;;;;;4930778;28;88070;-83
2022/11/28 11:07:22;;;;;;;16.08;3.53;;;22.80;60.70;;;;;;4906270;28;94421;-84
2022/11/28 11:09:48;;;;;;;15.88;3.72;;;22.90;59.40;;;;;;4891528;28;87979;-84
2022/11/28 11:12:25;;;;;;;11.60;3.10;;;22.80;59.90;;;;;;4879074;28;88949;-84
2022/11/28 11:14:51;;;;;;;10.70;2.50;;;22.80;58.80;;;;;;4891113;28;89033;-83
2022/11/28 11:17:33;;;;;;;11.38;2.97;;;22.60;57.10;;;;;;4890664;28;87003;-84
2022/11/28 11:19:59;;;;;;;15.93;4.03;;;22.50;58.40;;;;;;4893562;28;87381;-83
2022/11/28 11:22:30;;;;;;;7.60;2.95;;;22.50;59.10;;;;;;4894801;28;88651;-83
2022/11/28 11:25:15;;;;;;;8.32;3.10;;;22.40;59.60;;;;;;4889960;28;88911;-83
2022/11/28 11:28:23;;;;;;;9.23;3.05;;;22.40;59.70;;;;;;4893736;28;88157;-83
2022/11/28 11:30:56;;;;;;;10.75;2.80;;;22.40;59.10;;;;;;4856850;28;87347;-83
2022/11/28 11:33:31;;;;;;;12.98;2.60;;;22.50;59.40;;;;;;4856493;28;87627;-83
2022/11/28 11:35:57;;;;;;;9.00;3.03;;;22.60;59.20;;;;;;4880919;28;88379;-83
2022/11/28 11:38:32;;;;;;;12.40;2.25;;;22.60;59.20;;;;;;4916930;28;87733;-83
2022/11/28 11:41:27;;;;;;;8.05;2.50;;;22.70;59.20;;;;;;4923233;28;87749;-83
2022/11/28 11:43:53;;;;;;;5.95;2.55;;;22.70;59.70;;;;;;4918213;28;86484;-83
2022/11/28 11:46:18;;;;;;;7.53;2.28;;;22.70;59.10;;;;;;4925939;28;87850;-83
2022/11/28 11:48:51;;;;;;;11.60;3.08;;;22.60;58.50;;;;;;4952620;28;88016;-83
2022/11/28 11:51:29;;;;;;;11.20;2.67;;;22.60;58.80;;;;;;4949753;28;88719;-83
2022/11/28 11:54:12;;;;;;;8.52;2.20;;;22.60;59.20;;;;;;4953018;28;87865;-83
2022/11/28 11:56:43;;;;;;;7.55;2.20;;;22.60;58.30;;;;;;4951842;28;88692;-83
2022/11/28 11:59:23;;;;;;;12.77;3.03;;;22.70;58.80;;;;;;4934622;28;88642;-83
2022/11/28 12:01:59;;;;;;;15.63;2.65;;;22.70;58.80;;;;;;4952762;28;87771;-83
2022/11/28 12:04:38;;;;;;;13.85;3.38;;;22.80;58.80;;;;;;4957584;28;88023;-82
2022/11/28 12:07:12;;;;;;;13.73;2.47;;;22.80;59.00;;;;;;4975391;28;88188;-82
2022/11/28 12:09:46;;;;;;;13.02;2.50;;;22.80;59.30;;;;;;5016059;27;87541;-83
2022/11/28 12:12:27;;;;;;;15.77;3.08;;;22.80;59.40;;;;;;5016185;27;87571;-83
2022/11/28 12:14:54;;;;;;;15.55;2.67;;;22.80;60.00;;;;;;5009869;27;86994;-82
2022/11/28 12:17:28;;;;;;;13.45;3.40;;;22.80;60.90;;;;;;5017284;27;88526;-83
2022/11/28 12:20:25;;;;;;;16.08;2.83;;;22.90;60.80;;;;;;5019624;28;89146;-82
2022/11/28 12:23:08;;;;;;;21.15;3.90;;;22.90;60.90;;;;;;5019708;28;87795;-81
2022/11/28 12:26:08;;;;;;;18.08;3.35;;;23.00;61.00;;;;;;5023124;27;87438;-82
2022/11/28 12:28:43;;;;;;;16.58;3.13;;;23.00;61.00;;;;;;4941001;28;88980;-82
2022/11/28 12:31:17;;;;;;;13.15;3.45;;;23.00;61.50;;;;;;4937272;28;87582;-82
2022/11/28 12:34:10;;;;;;;25.85;3.65;;;23.00;60.90;;;;;;4932592;28;87478;-81
2022/11/28 12:36:57;;;;;;;21.23;2.92;;;23.00;62.00;;;;;;4940688;28;87406;-81
2022/11/28 12:39:52;;;;;;;18.77;3.25;;;23.10;62.30;;;;;;4938823;28;88632;-81
2022/11/28 12:42:37;;;;;;;13.50;3.30;;;23.10;62.40;;;;;;4943559;28;88882;-82
2022/11/28 12:45:22;;;;;;;13.38;2.80;;;23.10;61.70;;;;;;4938953;28;88754;-81
2022/11/28 12:47:48;;;;;;;19.55;3.45;;;23.00;62.00;;;;;;4941337;28;87565;-82
2022/11/28 12:50:42;;;;;;;24.23;3.22;;;22.90;62.70;;;;;;4944301;28;88615;-81
2022/11/28 12:53:39;;;;;;;11.90;2.55;;;22.90;62.30;;;;;;4931291;28;89442;-82
2022/11/28 12:56:28;;;;;;;13.27;2.90;;;22.80;62.30;;;;;;4940406;28;87841;-82
2022/11/28 12:59:18;;;;;;;19.00;3.03;;;22.80;62.80;;;;;;4931998;28;87100;-83
2022/11/28 13:02:28;;;;;;;16.88;3.58;;;22.80;62.10;;;;;;4899564;28;90155;-83
2022/11/28 13:05:13;;;;;;;14.23;3.20;;;22.80;62.10;;;;;;4914194;28;88713;-82
2022/11/28 13:08:00;;;;;;;23.13;4.03;;;22.90;62.50;;;;;;4946486;28;87360;-83
2022/11/28 13:10:34;;;;;;;14.77;3.25;;;23.00;62.40;;;;;;4978020;28;87095;-83
2022/11/28 13:13:09;;;;;;;16.20;2.78;;;23.00;62.30;;;;;;4978388;28;89148;-84